Nearby METAR Reports

 

KSQL - San Carlos Airpo, California, USA
Distance from station: N 0mi, 1km
Updated: Wed, 18-Oct-2017 5:15am PDT
Clear
Clear
 Wind from calm
Wind: Calm
Temperature: 48°F , 9°C
Dew Point: 45°F , 7°C
Humidity: 87%
Barometer: 30.05 inHg , 1017.6 hPa
Clouds: Clear
Visibility: 10 miles , 16 km
2017/10/18 12:15 KSQL 181215Z AUTO 00000KT 10SM CLR 09/07 A3005 RMK AO2
KPAO - Palo Alto, California, USA
Distance from station: ESE 8mi, 13km
Updated: Tue, 17-Oct-2017 8:47pm PDT
NOT Current
Smoke, Partly cloudy
Smoke, Partly cloudy
 Wind from NW
Wind: NW 7 mph , 11 km/h
Temperature: 57°F , 14°C
Dew Point: 52°F , 11°C
Humidity: 82%
Barometer: 30.06 inHg , 1017.9 hPa
Summary: Smoke
Clouds: Partly cloudy
Visibility: 10 miles , 16 km
Cloud details: Partly cloudy 18000 ft
2017/10/18 03:47 KPAO 180347Z 32006KT 10SM FU SCT180 14/11 A3006 RMK LAST
 
KSFO - San Francisco, California, USA
Distance from station: NW 10mi, 16km
Updated: Wed, 18-Oct-2017 4:56am PDT
Few Clouds
Few Clouds
 Wind from W
Wind: W 8 mph , 13 km/h
Temperature: 48°F , 9°C
Wind Chill: 44°F , 7°C
Dew Point: 46°F , 8°C
Humidity: 94%
Barometer: 30.04 inHg , 1017.3 hPa
Clouds: Few Clouds
Visibility: 10 miles , 16 km
Cloud details: Few Clouds 20000 ft
2017/10/18 11:56 KSFO 181156Z 28007KT 10SM FEW200 09/08 A3004 RMK AO2 SLP172 T00890078 10106 20089 55008
KHWD - Hayward, California, USA
Distance from station: NE 13mi, 21km
Updated: Wed, 18-Oct-2017 4:54am PDT
Clear
Clear
 Wind from calm
Wind: Calm
Temperature: 48°F , 9°C
Dew Point: 39°F , 4°C
Humidity: 71%
Barometer: 30.04 inHg , 1017.3 hPa
Clouds: Clear
Visibility: 10 miles , 16 km
2017/10/18 11:54 KHWD 181154Z AUTO 00000KT 10SM CLR 09/04 A3004 RMK AO2 SLP181 T00940039 10128 20083 56009
 
KNUQ - Moffett Nas/Mtn, California, USA
Distance from station: SE 13mi, 22km
Updated: Wed, 18-Oct-2017 5:26am PDT
Smoke, Mostly cloudy
Smoke, Mostly cloudy
 Wind from calm
Wind: Calm
Temperature: 52°F , 11°C
Dew Point: 48°F , 9°C
Humidity: 88%
Barometer: 30.05 inHg , 1017.6 hPa
Summary: Smoke
Clouds: Mostly cloudy
Visibility: 9 miles , 14 km
Cloud details: Mostly cloudy 700 ft
2017/10/18 12:26 KNUQ 181226Z 00000KT 9SM FU BKN007 11/09 A3005 RMK AO2 T01110094
KHAF - Half Moon Bay, California, USA
Distance from station: W 14mi, 22km
Updated: Wed, 18-Oct-2017 5:35am PDT
Overcast
Overcast
 Wind from calm
Wind: Calm
Temperature: 50°F , 10°C
Dew Point: 48°F , 9°C
Humidity: 94%
Barometer: 30.02 inHg , 1016.6 hPa
Clouds: Overcast
Visibility: 7 miles , 11 km
Cloud details: Overcast 300 ft
2017/10/18 12:35 KHAF 181235Z AUTO 00000KT 7SM OVC003 10/09 A3002 RMK AO2
 
KOAK - Oakland, California, USA
Distance from station: N 14mi, 23km
Updated: Wed, 18-Oct-2017 4:53am PDT
Few Clouds
Few Clouds
 Wind from NNE
Wind: NNE 3 mph , 6 km/h
Temperature: 45°F , 7°C
Dew Point: 45°F , 7°C
Humidity: 100%
Barometer: 30.05 inHg , 1017.6 hPa
Clouds: Few Clouds
Visibility: 8 miles , 13 km
Cloud details: Few Clouds 1000 ft
2017/10/18 11:53 KOAK 181153Z 02003KT 8SM FEW010 07/07 A3005 RMK AO2 SLP173 T00720072 10111 20072 56009
KSJC - San Jose, California, USA
Distance from station: ESE 21mi, 34km
Updated: Wed, 18-Oct-2017 5:28am PDT
Mist, Partly cloudy
Mist, Partly cloudy
 Wind from W
Wind: W 5 mph , 7 km/h
Temperature: 52°F , 11°C
Dew Point: 50°F , 10°C
Humidity: 94%
Barometer: 30.04 inHg , 1017.3 hPa
Summary: Mist
Clouds: Partly cloudy
Visibility: 5 miles , 8 km
Cloud details: Partly cloudy 700 ft
2017/10/18 12:28 KSJC 181228Z 28004KT 5SM BR SCT007 11/10 A3004 RMK AO2 T01060100
 
KLVK - Livermore, California, USA
Distance from station: ENE 27mi, 43km
Updated: Wed, 18-Oct-2017 4:53am PDT
Smoke, Clear
Smoke, Clear
 Wind from calm
Wind: Calm
Temperature: 48°F , 9°C
Dew Point: 34°F , 1°C
Humidity: 58%
Barometer: 30.02 inHg , 1016.6 hPa
Summary: Smoke
Clouds: Clear
Visibility: 10 miles , 16 km
2017/10/18 11:53 KLVK 181153Z AUTO 00000KT 10SM FU CLR 09/01 A3002 RMK AO2 SLP163 T00890006 10139 20078 58009
KRHV - San Jose/Reid, California, USA
Distance from station: ESE 27mi, 44km
Updated: Tue, 17-Oct-2017 9:47pm PDT
NOT Current
Partly cloudy
Partly cloudy
 Wind from varies
Wind: varies 6 mph , 9 km/h
Temperature: 59°F , 15°C
Dew Point: 45°F , 7°C
Humidity: 59%
Barometer: 30.10 inHg , 1019.3 hPa
Clouds: Partly cloudy
Visibility: 8 miles , 13 km
Cloud details: Partly cloudy 12000 ft
2017/10/18 04:47 KRHV 180447Z VRB05KT 8SM SCT120 15/07 A3010 RMK LAST
 
KCCR - Concord, California, USA
Distance from station: NNE 35mi, 57km
Updated: Wed, 18-Oct-2017 4:53am PDT
Clear
Clear
 Wind from calm
Wind: Calm
Temperature: 48°F , 9°C
Dew Point: 43°F , 6°C
Humidity: 82%
Barometer: 30.03 inHg , 1016.9 hPa
Clouds: Clear
Visibility: 10 miles , 16 km
2017/10/18 11:53 KCCR 181153Z AUTO 00000KT 10SM CLR 09/06 A3003 RMK AO2 SLP155 T00890061 10139 20083 56007
KE16 - San Martin, California, USA
Distance from station: SE 46mi, 75km
Updated: Wed, 18-Oct-2017 5:35am PDT
Light rain, Mostly cloudy
Light rain, Mostly cloudy
 Wind from NNW
Wind: NNW 6 mph , 9 km/h
Temperature: 48°F , 9°C
Wind Chill: 45°F , 7°C
Dew Point: 41°F , 5°C
Humidity: 76%
Barometer: 30.05 inHg , 1017.6 hPa
Summary: Light rain
Clouds: Mostly cloudy
Visibility: 10 miles , 16 km
Cloud details: Mostly cloudy 3200 ft
2017/10/18 12:35 KE16 181235Z AUTO 34005KT 10SM -RA BKN032 09/05 A3005 RMK AO2
 
KDVO - Novato/Gnoss Fld, California, USA
Distance from station: NNW 47mi, 76km
Updated: Wed, 18-Oct-2017 5:35am PDT
Overcast
Overcast
 Wind from calm
Wind: Calm
Temperature: 43°F , 6°C
Dew Point: 41°F , 5°C
Humidity: 93%
Barometer: 30.05 inHg , 1017.6 hPa
Clouds: Overcast
Visibility: 10 miles , 16 km
Cloud details: Mostly cloudy 300 ft
Overcast 1700 ft
2017/10/18 12:35 KDVO 181235Z AUTO 00000KT 10SM BKN003 OVC017 06/05 A3005 RMK AO2
KWVI - Watsonville, California, USA
Distance from station: SSE 47mi, 76km
Updated: Thu, 12-Oct-2017 9:53am PDT
NOT Current
Clear
Clear
 Wind from E
Wind: E 3 mph , 6 km/h
Temperature: 57°F , 14°C
Dew Point: 39°F , 4°C
Humidity: 51%
Barometer: 30.11 inHg , 1019.6 hPa
Clouds: Clear
Visibility: 8 miles , 13 km
2017/10/12 16:53 KWVI 121653Z AUTO 09003KT 8SM CLR 14/04 A3011 RMK AO2 SLP194 T01440039 $
 
KAPC - Napa, California, USA
Distance from station: N 48mi, 77km
Updated: Wed, 18-Oct-2017 5:31am PDT
Mist, Smoke, Clear
Mist, Smoke, Clear
 Wind from calm
Wind: Calm
Temperature: 39°F , 4°C
Dew Point: 39°F , 4°C
Humidity: 100%
Barometer: 30.04 inHg , 1017.3 hPa
Summary: Mist, Smoke
Clouds: Clear
Visibility: 3 miles , 5 km
2017/10/18 12:31 KAPC 181231Z AUTO 00000KT 3SM BR FU CLR 04/04 A3004 RMK AO2 T00440039
KO69 - Petaluma, California, USA
Distance from station: NNW 54mi, 88km
Updated: Wed, 18-Oct-2017 5:35am PDT
Fog, Overcast
Fog, Overcast
 Wind from calm
Wind: Calm
Temperature: 46°F , 8°C
Dew Point: 46°F , 8°C
Humidity: 100%
Barometer: 30.05 inHg , 1017.6 hPa
Summary: Fog
Clouds: Overcast
Visibility: less than 1/4 mile , 2 km
Cloud details: Overcast 200 ft
2017/10/18 12:35 KO69 181235Z AUTO 00000KT M1/4SM FG OVC002 08/08 A3005 RMK A01
 
KSUU - Travis Afb/Fairf, California, USA
Distance from station: NNE 55mi, 89km
Updated: Wed, 18-Oct-2017 4:58am PDT
Clear
Clear
 Wind from W
Wind: W 5 mph , 7 km/h
Temperature: 45°F , 7°C
Wind Chill: 42°F , 6°C
Dew Point: 41°F , 5°C
Humidity: 87%
Barometer: 30.00 inHg , 1015.9 hPa
Clouds: Clear
Visibility: 10 miles , 16 km
2017/10/18 11:58 KSUU 181158Z AUTO 28004KT 10SM CLR 07/05 A3000 RMK AO2 SLP166 T00730051 10133 20065 55005 $
KCVH - Hollister Muni, California, USA
Distance from station: SE 62mi, 100km
Updated: Wed, 18-Oct-2017 5:30am PDT
Clear
Clear
 Wind from calm
Wind: Calm
Temperature: 46°F , 8°C
Dew Point: 32°F , 0°C
Humidity: 57%
Barometer: 30.05 inHg , 1017.6 hPa
Clouds: Clear
Visibility: 10 miles , 16 km
2017/10/18 12:30 KCVH 181230Z AUTO 00000KT 10SM CLR 08/M00 A3005 RMK A01
 
KSCK - Stockton, California, USA
Distance from station: ENE 62mi, 100km
Updated: Wed, 18-Oct-2017 4:55am PDT
Clear
Clear
 Wind from calm
Wind: Calm
Temperature: 46°F , 8°C
Dew Point: 37°F , 3°C
Humidity: 71%
Barometer: 30.01 inHg , 1016.3 hPa
Clouds: Clear
Visibility: 9 miles , 14 km
2017/10/18 11:55 KSCK 181155Z AUTO 00000KT 9SM CLR 08/03 A3001 RMK AO2 SLP160 T00780028 10139 20067 55004
KVCB - Vacaville, California, USA
Distance from station: NNE 62mi, 100km
Updated: Wed, 18-Oct-2017 4:53am PDT
Clear
Clear
 Wind from SW
Wind: SW 3 mph , 6 km/h
Temperature: 48°F , 9°C
Dew Point: 36°F , 2°C
Humidity: 62%
Barometer: 30.02 inHg , 1016.6 hPa
Clouds: Clear
Visibility: 9 miles , 14 km
2017/10/18 11:53 KVCB 181153Z AUTO 23003KT 9SM CLR 09/02 A3002 RMK AO2 SLP166 T00890022 10139 20072 55006